sensor_id;sensor_type;location;lat;lon;timestamp;P1;durP1;ratioP1;P2;durP2;ratioP2
21089;SDS011;10703;51.020;6.128;2023-04-03T00:00:49;18.53;;;14.97;;
21089;SDS011;10703;51.020;6.128;2023-04-03T00:03:19;15.37;;;13.93;;
21089;SDS011;10703;51.020;6.128;2023-04-03T00:05:46;20.23;;;15.10;;
21089;SDS011;10703;51.020;6.128;2023-04-03T00:08:12;22.67;;;15.67;;
21089;SDS011;10703;51.020;6.128;2023-04-03T00:10:39;18.07;;;15.57;;
21089;SDS011;10703;51.020;6.128;2023-04-03T00:13:06;21.17;;;15.43;;
21089;SDS011;10703;51.020;6.128;2023-04-03T00:15:33;19.47;;;14.93;;
21089;SDS011;10703;51.020;6.128;2023-04-03T00:18:01;17.53;;;15.67;;
21089;SDS011;10703;51.020;6.128;2023-04-03T00:20:28;18.90;;;15.40;;
21089;SDS011;10703;51.020;6.128;2023-04-03T00:22:55;17.73;;;15.93;;
21089;SDS011;10703;51.020;6.128;2023-04-03T00:25:22;19.23;;;15.73;;
21089;SDS011;10703;51.020;6.128;2023-04-03T00:27:48;18.30;;;16.07;;
21089;SDS011;10703;51.020;6.128;2023-04-03T00:30:16;19.83;;;15.43;;
21089;SDS011;10703;51.020;6.128;2023-04-03T00:32:44;22.10;;;16.17;;
21089;SDS011;10703;51.020;6.128;2023-04-03T00:35:11;21.40;;;15.60;;
21089;SDS011;10703;51.020;6.128;2023-04-03T00:37:42;16.90;;;15.13;;
21089;SDS011;10703;51.020;6.128;2023-04-03T00:40:09;19.67;;;15.50;;
21089;SDS011;10703;51.020;6.128;2023-04-03T00:42:37;21.47;;;15.67;;
21089;SDS011;10703;51.020;6.128;2023-04-03T00:47:56;20.87;;;15.37;;
21089;SDS011;10703;51.020;6.128;2023-04-03T00:50:26;19.50;;;16.50;;
21089;SDS011;10703;51.020;6.128;2023-04-03T00:52:55;21.63;;;15.93;;
21089;SDS011;10703;51.020;6.128;2023-04-03T00:55:22;27.07;;;16.83;;
21089;SDS011;10703;51.020;6.128;2023-04-03T00:57:49;17.53;;;15.73;;
21089;SDS011;10703;51.020;6.128;2023-04-03T01:00:17;19.97;;;15.63;;
21089;SDS011;10703;51.020;6.128;2023-04-03T01:02:48;20.73;;;16.40;;
21089;SDS011;10703;51.020;6.128;2023-04-03T01:05:17;18.30;;;15.87;;
21089;SDS011;10703;51.020;6.128;2023-04-03T01:07:45;21.63;;;17.30;;
21089;SDS011;10703;51.020;6.128;2023-04-03T01:10:14;26.67;;;16.37;;
21089;SDS011;10703;51.020;6.128;2023-04-03T01:12:43;23.03;;;16.20;;
21089;SDS011;10703;51.020;6.128;2023-04-03T01:15:17;19.80;;;16.53;;
21089;SDS011;10703;51.020;6.128;2023-04-03T01:17:53;20.20;;;16.93;;
21089;SDS011;10703;51.020;6.128;2023-04-03T01:25:44;20.80;;;16.37;;
21089;SDS011;10703;51.020;6.128;2023-04-03T01:28:12;21.80;;;16.80;;
21089;SDS011;10703;51.020;6.128;2023-04-03T01:33:47;22.70;;;16.57;;
21089;SDS011;10703;51.020;6.128;2023-04-03T01:36:19;17.77;;;15.97;;
21089;SDS011;10703;51.020;6.128;2023-04-03T01:38:51;24.80;;;17.73;;
21089;SDS011;10703;51.020;6.128;2023-04-03T01:41:19;24.03;;;16.97;;
21089;SDS011;10703;51.020;6.128;2023-04-03T01:43:47;22.70;;;16.73;;
21089;SDS011;10703;51.020;6.128;2023-04-03T01:46:15;19.77;;;16.27;;
21089;SDS011;10703;51.020;6.128;2023-04-03T01:48:42;20.77;;;16.60;;
21089;SDS011;10703;51.020;6.128;2023-04-03T01:51:09;20.03;;;16.47;;
21089;SDS011;10703;51.020;6.128;2023-04-03T01:53:36;20.33;;;16.00;;
21089;SDS011;10703;51.020;6.128;2023-04-03T01:56:02;19.37;;;16.57;;
21089;SDS011;10703;51.020;6.128;2023-04-03T01:58:29;26.10;;;16.83;;
21089;SDS011;10703;51.020;6.128;2023-04-03T02:00:56;22.53;;;16.63;;
21089;SDS011;10703;51.020;6.128;2023-04-03T02:03:23;18.03;;;16.00;;
21089;SDS011;10703;51.020;6.128;2023-04-03T02:05:49;22.13;;;15.57;;
21089;SDS011;10703;51.020;6.128;2023-04-03T02:08:16;22.07;;;16.07;;
21089;SDS011;10703;51.020;6.128;2023-04-03T02:10:49;20.97;;;16.97;;
21089;SDS011;10703;51.020;6.128;2023-04-03T02:13:16;20.47;;;16.37;;
21089;SDS011;10703;51.020;6.128;2023-04-03T02:15:43;23.40;;;17.50;;
21089;SDS011;10703;51.020;6.128;2023-04-03T02:18:11;25.37;;;17.20;;
21089;SDS011;10703;51.020;6.128;2023-04-03T02:20:38;22.43;;;16.40;;
21089;SDS011;10703;51.020;6.128;2023-04-03T02:23:05;23.87;;;17.67;;
21089;SDS011;10703;51.020;6.128;2023-04-03T02:25:32;24.70;;;17.90;;
21089;SDS011;10703;51.020;6.128;2023-04-03T02:28:00;20.33;;;16.73;;
21089;SDS011;10703;51.020;6.128;2023-04-03T02:30:26;25.83;;;17.77;;
21089;SDS011;10703;51.020;6.128;2023-04-03T02:32:53;21.73;;;17.13;;
21089;SDS011;10703;51.020;6.128;2023-04-03T02:35:21;31.00;;;18.03;;
21089;SDS011;10703;51.020;6.128;2023-04-03T02:37:48;23.33;;;17.67;;
21089;SDS011;10703;51.020;6.128;2023-04-03T02:40:14;28.50;;;17.97;;
21089;SDS011;10703;51.020;6.128;2023-04-03T02:42:41;23.10;;;17.67;;
21089;SDS011;10703;51.020;6.128;2023-04-03T02:45:08;21.67;;;17.27;;
21089;SDS011;10703;51.020;6.128;2023-04-03T02:47:35;26.67;;;17.93;;
21089;SDS011;10703;51.020;6.128;2023-04-03T02:50:02;24.00;;;17.30;;
21089;SDS011;10703;51.020;6.128;2023-04-03T02:52:28;21.27;;;18.10;;
21089;SDS011;10703;51.020;6.128;2023-04-03T02:54:55;23.50;;;18.27;;
21089;SDS011;10703;51.020;6.128;2023-04-03T02:57:22;21.90;;;18.27;;
21089;SDS011;10703;51.020;6.128;2023-04-03T02:59:49;23.40;;;17.37;;
21089;SDS011;10703;51.020;6.128;2023-04-03T03:02:15;27.90;;;18.67;;
21089;SDS011;10703;51.020;6.128;2023-04-03T03:04:42;23.30;;;17.57;;
21089;SDS011;10703;51.020;6.128;2023-04-03T03:07:09;25.23;;;16.70;;
21089;SDS011;10703;51.020;6.128;2023-04-03T03:09:35;21.07;;;17.67;;
21089;SDS011;10703;51.020;6.128;2023-04-03T03:12:02;21.40;;;17.30;;
21089;SDS011;10703;51.020;6.128;2023-04-03T03:14:29;22.00;;;17.43;;
21089;SDS011;10703;51.020;6.128;2023-04-03T03:16:56;22.50;;;17.77;;
21089;SDS011;10703;51.020;6.128;2023-04-03T03:19:22;26.57;;;17.77;;
21089;SDS011;10703;51.020;6.128;2023-04-03T03:21:49;19.20;;;17.10;;
21089;SDS011;10703;51.020;6.128;2023-04-03T03:24:16;25.47;;;17.43;;
21089;SDS011;10703;51.020;6.128;2023-04-03T03:26:42;23.23;;;17.27;;
21089;SDS011;10703;51.020;6.128;2023-04-03T03:29:09;23.67;;;18.13;;
21089;SDS011;10703;51.020;6.128;2023-04-03T03:31:35;29.07;;;19.20;;
21089;SDS011;10703;51.020;6.128;2023-04-03T03:34:02;25.63;;;18.20;;
21089;SDS011;10703;51.020;6.128;2023-04-03T03:36:29;26.03;;;18.50;;
21089;SDS011;10703;51.020;6.128;2023-04-03T03:38:56;26.47;;;18.23;;
21089;SDS011;10703;51.020;6.128;2023-04-03T03:41:23;30.47;;;18.97;;
21089;SDS011;10703;51.020;6.128;2023-04-03T03:43:49;25.70;;;18.57;;
21089;SDS011;10703;51.020;6.128;2023-04-03T03:46:16;25.77;;;17.93;;
21089;SDS011;10703;51.020;6.128;2023-04-03T03:48:42;23.20;;;18.30;;
21089;SDS011;10703;51.020;6.128;2023-04-03T03:51:09;24.17;;;17.63;;
21089;SDS011;10703;51.020;6.128;2023-04-03T03:53:36;27.87;;;18.73;;
21089;SDS011;10703;51.020;6.128;2023-04-03T03:56:03;30.27;;;19.07;;
21089;SDS011;10703;51.020;6.128;2023-04-03T03:58:30;23.07;;;18.27;;
21089;SDS011;10703;51.020;6.128;2023-04-03T04:00:57;29.20;;;20.37;;
21089;SDS011;10703;51.020;6.128;2023-04-03T04:03:27;27.70;;;19.40;;
21089;SDS011;10703;51.020;6.128;2023-04-03T04:05:53;31.37;;;20.20;;
21089;SDS011;10703;51.020;6.128;2023-04-03T04:08:20;26.57;;;18.77;;
21089;SDS011;10703;51.020;6.128;2023-04-03T04:10:47;29.27;;;19.77;;
21089;SDS011;10703;51.020;6.128;2023-04-03T04:13:13;26.03;;;18.90;;
21089;SDS011;10703;51.020;6.128;2023-04-03T04:15:40;30.93;;;19.77;;
21089;SDS011;10703;51.020;6.128;2023-04-03T04:18:07;33.63;;;20.50;;
21089;SDS011;10703;51.020;6.128;2023-04-03T04:20:34;34.13;;;19.50;;
21089;SDS011;10703;51.020;6.128;2023-04-03T04:23:01;35.63;;;20.97;;
21089;SDS011;10703;51.020;6.128;2023-04-03T04:25:27;37.77;;;21.63;;
21089;SDS011;10703;51.020;6.128;2023-04-03T04:27:54;31.67;;;21.40;;
21089;SDS011;10703;51.020;6.128;2023-04-03T04:30:20;31.90;;;21.07;;
21089;SDS011;10703;51.020;6.128;2023-04-03T04:32:47;35.23;;;22.87;;
21089;SDS011;10703;51.020;6.128;2023-04-03T04:35:14;34.30;;;21.60;;
21089;SDS011;10703;51.020;6.128;2023-04-03T04:37:42;34.53;;;22.47;;
21089;SDS011;10703;51.020;6.128;2023-04-03T04:40:08;32.23;;;22.30;;
21089;SDS011;10703;51.020;6.128;2023-04-03T04:42:35;38.90;;;20.90;;
21089;SDS011;10703;51.020;6.128;2023-04-03T04:45:02;33.50;;;22.03;;
21089;SDS011;10703;51.020;6.128;2023-04-03T04:47:29;30.53;;;19.70;;
21089;SDS011;10703;51.020;6.128;2023-04-03T04:49:55;37.43;;;19.83;;
21089;SDS011;10703;51.020;6.128;2023-04-03T04:52:22;41.60;;;22.43;;
21089;SDS011;10703;51.020;6.128;2023-04-03T04:54:48;38.97;;;21.40;;
21089;SDS011;10703;51.020;6.128;2023-04-03T04:57:15;39.87;;;20.43;;
21089;SDS011;10703;51.020;6.128;2023-04-03T04:59:42;39.47;;;22.37;;
21089;SDS011;10703;51.020;6.128;2023-04-03T05:02:08;36.03;;;20.90;;
21089;SDS011;10703;51.020;6.128;2023-04-03T05:04:35;34.37;;;20.53;;
21089;SDS011;10703;51.020;6.128;2023-04-03T05:07:01;35.67;;;22.50;;
21089;SDS011;10703;51.020;6.128;2023-04-03T05:09:28;35.43;;;20.47;;
21089;SDS011;10703;51.020;6.128;2023-04-03T05:11:55;39.00;;;19.70;;
21089;SDS011;10703;51.020;6.128;2023-04-03T05:14:22;36.37;;;20.27;;
21089;SDS011;10703;51.020;6.128;2023-04-03T05:16:49;32.43;;;19.37;;
21089;SDS011;10703;51.020;6.128;2023-04-03T05:19:19;29.17;;;18.40;;
21089;SDS011;10703;51.020;6.128;2023-04-03T05:21:46;33.20;;;18.77;;
21089;SDS011;10703;51.020;6.128;2023-04-03T05:24:13;30.10;;;18.67;;
21089;SDS011;10703;51.020;6.128;2023-04-03T05:26:41;30.30;;;18.30;;
21089;SDS011;10703;51.020;6.128;2023-04-03T05:29:08;26.87;;;18.43;;
21089;SDS011;10703;51.020;6.128;2023-04-03T05:31:35;33.57;;;18.87;;
21089;SDS011;10703;51.020;6.128;2023-04-03T05:34:02;28.67;;;18.57;;
21089;SDS011;10703;51.020;6.128;2023-04-03T05:36:29;41.23;;;21.43;;
21089;SDS011;10703;51.020;6.128;2023-04-03T05:38:56;47.70;;;21.87;;
21089;SDS011;10703;51.020;6.128;2023-04-03T05:41:23;28.77;;;20.23;;
21089;SDS011;10703;51.020;6.128;2023-04-03T05:43:49;40.07;;;18.57;;
21089;SDS011;10703;51.020;6.128;2023-04-03T05:46:17;29.87;;;19.27;;
21089;SDS011;10703;51.020;6.128;2023-04-03T05:48:46;29.77;;;17.80;;
21089;SDS011;10703;51.020;6.128;2023-04-03T05:51:17;32.00;;;18.57;;
21089;SDS011;10703;51.020;6.128;2023-04-03T05:53:47;27.10;;;17.63;;
21089;SDS011;10703;51.020;6.128;2023-04-03T05:56:16;27.83;;;17.33;;
21089;SDS011;10703;51.020;6.128;2023-04-03T05:58:42;33.93;;;15.60;;
21089;SDS011;10703;51.020;6.128;2023-04-03T06:01:09;26.23;;;15.97;;
21089;SDS011;10703;51.020;6.128;2023-04-03T06:03:35;33.93;;;16.30;;
21089;SDS011;10703;51.020;6.128;2023-04-03T06:06:05;26.73;;;16.40;;
21089;SDS011;10703;51.020;6.128;2023-04-03T06:08:32;32.27;;;17.47;;
21089;SDS011;10703;51.020;6.128;2023-04-03T06:10:59;33.53;;;16.93;;
21089;SDS011;10703;51.020;6.128;2023-04-03T06:13:25;30.70;;;17.43;;
21089;SDS011;10703;51.020;6.128;2023-04-03T06:15:52;27.70;;;16.87;;
21089;SDS011;10703;51.020;6.128;2023-04-03T06:18:18;29.83;;;17.97;;
21089;SDS011;10703;51.020;6.128;2023-04-03T06:20:45;37.17;;;19.57;;
21089;SDS011;10703;51.020;6.128;2023-04-03T06:23:11;28.00;;;17.13;;
21089;SDS011;10703;51.020;6.128;2023-04-03T06:25:38;28.80;;;18.43;;
21089;SDS011;10703;51.020;6.128;2023-04-03T06:28:05;38.70;;;18.63;;
21089;SDS011;10703;51.020;6.128;2023-04-03T06:30:33;28.87;;;17.67;;
21089;SDS011;10703;51.020;6.128;2023-04-03T06:33:01;33.73;;;15.80;;
21089;SDS011;10703;51.020;6.128;2023-04-03T06:35:28;29.17;;;14.33;;
21089;SDS011;10703;51.020;6.128;2023-04-03T06:37:56;28.67;;;14.10;;
21089;SDS011;10703;51.020;6.128;2023-04-03T06:40:23;28.88;;;16.98;;
21089;SDS011;10703;51.020;6.128;2023-04-03T06:42:52;27.23;;;16.47;;
21089;SDS011;10703;51.020;6.128;2023-04-03T06:45:19;24.93;;;15.17;;
21089;SDS011;10703;51.020;6.128;2023-04-03T06:47:46;24.27;;;14.93;;
21089;SDS011;10703;51.020;6.128;2023-04-03T06:50:12;24.93;;;15.60;;
21089;SDS011;10703;51.020;6.128;2023-04-03T06:52:40;26.07;;;15.00;;
21089;SDS011;10703;51.020;6.128;2023-04-03T06:55:08;25.53;;;15.53;;
21089;SDS011;10703;51.020;6.128;2023-04-03T06:57:35;25.90;;;16.50;;
21089;SDS011;10703;51.020;6.128;2023-04-03T07:00:03;26.37;;;15.80;;
21089;SDS011;10703;51.020;6.128;2023-04-03T07:02:30;27.77;;;15.80;;
21089;SDS011;10703;51.020;6.128;2023-04-03T07:04:57;24.23;;;16.63;;
21089;SDS011;10703;51.020;6.128;2023-04-03T07:07:24;24.97;;;14.60;;
21089;SDS011;10703;51.020;6.128;2023-04-03T07:09:50;26.43;;;16.57;;
21089;SDS011;10703;51.020;6.128;2023-04-03T07:12:17;34.10;;;16.40;;
21089;SDS011;10703;51.020;6.128;2023-04-03T07:14:43;22.70;;;16.30;;
21089;SDS011;10703;51.020;6.128;2023-04-03T07:17:10;29.87;;;16.67;;
21089;SDS011;10703;51.020;6.128;2023-04-03T07:19:37;21.93;;;15.27;;
21089;SDS011;10703;51.020;6.128;2023-04-03T07:22:03;28.70;;;15.20;;
21089;SDS011;10703;51.020;6.128;2023-04-03T07:24:30;20.87;;;14.23;;
21089;SDS011;10703;51.020;6.128;2023-04-03T07:26:56;24.90;;;14.23;;
21089;SDS011;10703;51.020;6.128;2023-04-03T07:29:23;17.80;;;12.60;;
21089;SDS011;10703;51.020;6.128;2023-04-03T07:31:49;18.10;;;11.60;;
21089;SDS011;10703;51.020;6.128;2023-04-03T07:34:16;15.57;;;9.80;;
21089;SDS011;10703;51.020;6.128;2023-04-03T07:36:43;16.83;;;9.73;;
21089;SDS011;10703;51.020;6.128;2023-04-03T07:39:09;10.90;;;8.77;;
21089;SDS011;10703;51.020;6.128;2023-04-03T07:41:37;9.50;;;7.90;;
21089;SDS011;10703;51.020;6.128;2023-04-03T07:44:04;12.80;;;8.90;;
21089;SDS011;10703;51.020;6.128;2023-04-03T07:46:31;8.87;;;7.07;;
21089;SDS011;10703;51.020;6.128;2023-04-03T07:48:58;8.80;;;6.90;;
21089;SDS011;10703;51.020;6.128;2023-04-03T07:51:24;10.00;;;6.30;;
21089;SDS011;10703;51.020;6.128;2023-04-03T07:53:52;7.60;;;6.10;;
21089;SDS011;10703;51.020;6.128;2023-04-03T07:56:19;9.50;;;6.27;;
21089;SDS011;10703;51.020;6.128;2023-04-03T07:58:46;7.73;;;6.00;;
21089;SDS011;10703;51.020;6.128;2023-04-03T08:01:13;6.87;;;6.23;;
21089;SDS011;10703;51.020;6.128;2023-04-03T08:03:39;10.40;;;5.77;;
21089;SDS011;10703;51.020;6.128;2023-04-03T08:06:07;6.47;;;5.87;;
21089;SDS011;10703;51.020;6.128;2023-04-03T08:08:41;10.77;;;6.20;;
21089;SDS011;10703;51.020;6.128;2023-04-03T08:11:07;9.63;;;6.60;;
21089;SDS011;10703;51.020;6.128;2023-04-03T08:13:36;6.30;;;5.70;;
21089;SDS011;10703;51.020;6.128;2023-04-03T08:16:07;8.27;;;6.40;;
21089;SDS011;10703;51.020;6.128;2023-04-03T08:18:34;6.20;;;5.60;;
21089;SDS011;10703;51.020;6.128;2023-04-03T08:21:04;9.30;;;5.63;;
21089;SDS011;10703;51.020;6.128;2023-04-03T08:23:31;7.67;;;6.17;;
21089;SDS011;10703;51.020;6.128;2023-04-03T08:25:58;6.63;;;5.93;;
21089;SDS011;10703;51.020;6.128;2023-04-03T08:28:25;8.03;;;5.33;;
21089;SDS011;10703;51.020;6.128;2023-04-03T08:30:51;8.53;;;5.90;;
21089;SDS011;10703;51.020;6.128;2023-04-03T08:33:18;8.47;;;5.47;;
21089;SDS011;10703;51.020;6.128;2023-04-03T08:35:44;8.17;;;5.43;;
21089;SDS011;10703;51.020;6.128;2023-04-03T08:38:11;7.20;;;5.67;;
21089;SDS011;10703;51.020;6.128;2023-04-03T08:40:38;5.80;;;5.30;;
21089;SDS011;10703;51.020;6.128;2023-04-03T08:45:40;8.90;;;5.50;;
21089;SDS011;10703;51.020;6.128;2023-04-03T08:48:15;8.70;;;5.77;;
21089;SDS011;10703;51.020;6.128;2023-04-03T08:50:52;8.53;;;5.30;;
21089;SDS011;10703;51.020;6.128;2023-04-03T08:53:29;9.13;;;6.70;;
21089;SDS011;10703;51.020;6.128;2023-04-03T08:56:00;8.97;;;6.60;;
21089;SDS011;10703;51.020;6.128;2023-04-03T08:58:31;7.23;;;6.00;;
21089;SDS011;10703;51.020;6.128;2023-04-03T09:03:44;6.23;;;5.63;;
21089;SDS011;10703;51.020;6.128;2023-04-03T09:06:15;9.73;;;5.13;;
21089;SDS011;10703;51.020;6.128;2023-04-03T09:14:46;6.67;;;4.90;;
21089;SDS011;10703;51.020;6.128;2023-04-03T09:17:41;6.93;;;4.80;;
21089;SDS011;10703;51.020;6.128;2023-04-03T09:26:20;7.30;;;4.83;;
21089;SDS011;10703;51.020;6.128;2023-04-03T09:28:53;5.13;;;4.60;;
21089;SDS011;10703;51.020;6.128;2023-04-03T09:31:24;5.60;;;4.87;;
21089;SDS011;10703;51.020;6.128;2023-04-03T09:33:54;5.60;;;5.03;;
21089;SDS011;10703;51.020;6.128;2023-04-03T09:36:39;4.73;;;4.20;;
21089;SDS011;10703;51.020;6.128;2023-04-03T09:39:13;5.07;;;4.20;;
21089;SDS011;10703;51.020;6.128;2023-04-03T09:41:55;7.97;;;4.87;;
21089;SDS011;10703;51.020;6.128;2023-04-03T09:44:25;5.30;;;4.80;;
21089;SDS011;10703;51.020;6.128;2023-04-03T09:49:49;4.97;;;4.37;;
21089;SDS011;10703;51.020;6.128;2023-04-03T09:52:22;4.93;;;4.50;;
21089;SDS011;10703;51.020;6.128;2023-04-03T09:54:50;5.73;;;4.87;;
21089;SDS011;10703;51.020;6.128;2023-04-03T09:57:17;5.53;;;5.03;;
21089;SDS011;10703;51.020;6.128;2023-04-03T09:59:56;9.17;;;4.67;;
21089;SDS011;10703;51.020;6.128;2023-04-03T10:02:35;6.03;;;5.43;;
21089;SDS011;10703;51.020;6.128;2023-04-03T10:05:24;5.57;;;4.97;;
21089;SDS011;10703;51.020;6.128;2023-04-03T10:08:09;5.10;;;4.00;;
21089;SDS011;10703;51.020;6.128;2023-04-03T10:10:40;7.37;;;4.37;;
21089;SDS011;10703;51.020;6.128;2023-04-03T10:13:12;4.43;;;4.03;;
21089;SDS011;10703;51.020;6.128;2023-04-03T10:24:23;4.23;;;3.87;;
21089;SDS011;10703;51.020;6.128;2023-04-03T10:27:03;10.27;;;3.97;;
21089;SDS011;10703;51.020;6.128;2023-04-03T10:29:40;4.63;;;4.20;;
21089;SDS011;10703;51.020;6.128;2023-04-03T10:34:57;4.43;;;4.10;;
21089;SDS011;10703;51.020;6.128;2023-04-03T10:37:37;6.03;;;4.60;;
21089;SDS011;10703;51.020;6.128;2023-04-03T10:43:04;4.10;;;3.80;;
21089;SDS011;10703;51.020;6.128;2023-04-03T10:45:46;6.67;;;4.10;;
21089;SDS011;10703;51.020;6.128;2023-04-03T10:53:56;8.13;;;4.30;;
21089;SDS011;10703;51.020;6.128;2023-04-03T10:56:42;6.45;;;4.10;;
21089;SDS011;10703;51.020;6.128;2023-04-03T10:59:34;6.38;;;3.95;;
21089;SDS011;10703;51.020;6.128;2023-04-03T11:02:11;5.53;;;4.15;;
21089;SDS011;10703;51.020;6.128;2023-04-03T11:04:49;6.20;;;3.75;;
21089;SDS011;10703;51.020;6.128;2023-04-03T11:07:21;7.90;;;4.25;;
21089;SDS011;10703;51.020;6.128;2023-04-03T11:09:54;4.43;;;4.03;;
21089;SDS011;10703;51.020;6.128;2023-04-03T11:12:48;4.13;;;3.72;;
21089;SDS011;10703;51.020;6.128;2023-04-03T11:15:24;4.03;;;3.70;;
21089;SDS011;10703;51.020;6.128;2023-04-03T11:17:54;5.70;;;3.97;;
21089;SDS011;10703;51.020;6.128;2023-04-03T11:20:29;4.65;;;4.00;;
21089;SDS011;10703;51.020;6.128;2023-04-03T11:23:13;6.05;;;4.00;;
21089;SDS011;10703;51.020;6.128;2023-04-03T11:25:46;5.13;;;3.78;;
21089;SDS011;10703;51.020;6.128;2023-04-03T11:28:18;7.07;;;3.75;;
21089;SDS011;10703;51.020;6.128;2023-04-03T11:35:54;6.00;;;3.85;;
21089;SDS011;10703;51.020;6.128;2023-04-03T11:38:32;7.75;;;3.55;;
21089;SDS011;10703;51.020;6.128;2023-04-03T11:41:03;4.65;;;4.10;;
21089;SDS011;10703;51.020;6.128;2023-04-03T11:43:32;5.85;;;3.67;;
21089;SDS011;10703;51.020;6.128;2023-04-03T11:46:05;5.55;;;4.00;;
21089;SDS011;10703;51.020;6.128;2023-04-03T11:51:01;4.18;;;3.55;;
21089;SDS011;10703;51.020;6.128;2023-04-03T11:53:48;5.30;;;3.50;;
21089;SDS011;10703;51.020;6.128;2023-04-03T12:01:47;5.15;;;3.50;;
21089;SDS011;10703;51.020;6.128;2023-04-03T12:04:22;7.43;;;3.80;;
21089;SDS011;10703;51.020;6.128;2023-04-03T12:07:02;4.88;;;3.28;;
21089;SDS011;10703;51.020;6.128;2023-04-03T12:12:27;4.20;;;3.60;;
21089;SDS011;10703;51.020;6.128;2023-04-03T12:15:12;4.72;;;3.80;;
21089;SDS011;10703;51.020;6.128;2023-04-03T12:17:50;4.07;;;3.63;;
21089;SDS011;10703;51.020;6.128;2023-04-03T12:23:26;3.90;;;3.60;;
21089;SDS011;10703;51.020;6.128;2023-04-03T12:26:03;4.57;;;3.55;;
21089;SDS011;10703;51.020;6.128;2023-04-03T12:28:35;3.88;;;3.47;;
21089;SDS011;10703;51.020;6.128;2023-04-03T12:31:05;5.28;;;3.53;;
21089;SDS011;10703;51.020;6.128;2023-04-03T12:36:12;3.40;;;3.17;;
21089;SDS011;10703;51.020;6.128;2023-04-03T12:39:11;3.50;;;3.20;;
21089;SDS011;10703;51.020;6.128;2023-04-03T12:44:24;5.65;;;3.60;;
21089;SDS011;10703;51.020;6.128;2023-04-03T12:47:07;3.70;;;3.10;;
21089;SDS011;10703;51.020;6.128;2023-04-03T12:49:52;4.57;;;3.50;;
21089;SDS011;10703;51.020;6.128;2023-04-03T12:55:01;3.83;;;3.53;;
21089;SDS011;10703;51.020;6.128;2023-04-03T12:57:30;4.22;;;3.60;;
21089;SDS011;10703;51.020;6.128;2023-04-03T12:59:58;4.65;;;3.85;;
21089;SDS011;10703;51.020;6.128;2023-04-03T13:02:27;4.85;;;3.45;;
21089;SDS011;10703;51.020;6.128;2023-04-03T13:05:04;3.92;;;3.60;;
21089;SDS011;10703;51.020;6.128;2023-04-03T13:07:34;4.93;;;3.75;;
21089;SDS011;10703;51.020;6.128;2023-04-03T13:12:35;6.55;;;3.53;;
21089;SDS011;10703;51.020;6.128;2023-04-03T13:15:23;6.50;;;3.55;;
21089;SDS011;10703;51.020;6.128;2023-04-03T13:17:54;3.67;;;3.38;;
21089;SDS011;10703;51.020;6.128;2023-04-03T13:20:23;5.05;;;3.33;;
21089;SDS011;10703;51.020;6.128;2023-04-03T13:25:36;9.57;;;3.53;;
21089;SDS011;10703;51.020;6.128;2023-04-03T13:28:10;6.85;;;3.60;;
21089;SDS011;10703;51.020;6.128;2023-04-03T13:30:41;4.85;;;3.55;;
21089;SDS011;10703;51.020;6.128;2023-04-03T13:33:43;4.10;;;3.20;;
21089;SDS011;10703;51.020;6.128;2023-04-03T13:36:40;8.77;;;3.13;;
21089;SDS011;10703;51.020;6.128;2023-04-03T13:41:42;4.47;;;3.25;;
21089;SDS011;10703;51.020;6.128;2023-04-03T13:46:57;4.93;;;3.13;;
21089;SDS011;10703;51.020;6.128;2023-04-03T13:50:04;3.97;;;3.10;;
21089;SDS011;10703;51.020;6.128;2023-04-03T13:52:45;4.63;;;3.30;;
21089;SDS011;10703;51.020;6.128;2023-04-03T13:57:56;5.05;;;3.45;;
21089;SDS011;10703;51.020;6.128;2023-04-03T14:03:26;6.45;;;3.20;;
21089;SDS011;10703;51.020;6.128;2023-04-03T14:05:57;5.72;;;3.17;;
21089;SDS011;10703;51.020;6.128;2023-04-03T14:08:24;4.82;;;3.38;;
21089;SDS011;10703;51.020;6.128;2023-04-03T14:11:17;9.15;;;3.28;;
21089;SDS011;10703;51.020;6.128;2023-04-03T14:13:48;3.30;;;3.00;;
21089;SDS011;10703;51.020;6.128;2023-04-03T14:16:15;4.28;;;2.85;;
21089;SDS011;10703;51.020;6.128;2023-04-03T14:18:45;3.38;;;3.08;;
21089;SDS011;10703;51.020;6.128;2023-04-03T14:21:14;3.20;;;2.90;;
21089;SDS011;10703;51.020;6.128;2023-04-03T14:23:42;3.20;;;2.90;;
21089;SDS011;10703;51.020;6.128;2023-04-03T14:26:16;3.28;;;2.88;;
21089;SDS011;10703;51.020;6.128;2023-04-03T14:28:47;4.93;;;2.95;;
21089;SDS011;10703;51.020;6.128;2023-04-03T14:31:15;3.40;;;2.90;;
21089;SDS011;10703;51.020;6.128;2023-04-03T14:33:42;4.35;;;3.10;;
21089;SDS011;10703;51.020;6.128;2023-04-03T14:36:13;4.07;;;3.10;;
21089;SDS011;10703;51.020;6.128;2023-04-03T14:38:42;5.80;;;3.05;;
21089;SDS011;10703;51.020;6.128;2023-04-03T14:41:10;4.97;;;3.22;;
21089;SDS011;10703;51.020;6.128;2023-04-03T14:43:43;3.40;;;3.10;;
21089;SDS011;10703;51.020;6.128;2023-04-03T14:46:13;4.70;;;2.88;;
21089;SDS011;10703;51.020;6.128;2023-04-03T14:48:41;3.20;;;2.85;;
21089;SDS011;10703;51.020;6.128;2023-04-03T14:51:10;4.05;;;3.20;;
21089;SDS011;10703;51.020;6.128;2023-04-03T14:53:38;3.45;;;2.88;;
21089;SDS011;10703;51.020;6.128;2023-04-03T14:56:14;3.70;;;2.97;;
21089;SDS011;10703;51.020;6.128;2023-04-03T14:58:44;7.22;;;3.35;;
21089;SDS011;10703;51.020;6.128;2023-04-03T15:01:15;3.40;;;3.10;;
21089;SDS011;10703;51.020;6.128;2023-04-03T15:03:43;7.10;;;4.47;;
21089;SDS011;10703;51.020;6.128;2023-04-03T15:06:11;5.90;;;3.03;;
21089;SDS011;10703;51.020;6.128;2023-04-03T15:08:39;3.40;;;3.10;;
21089;SDS011;10703;51.020;6.128;2023-04-03T15:11:09;3.80;;;3.35;;
21089;SDS011;10703;51.020;6.128;2023-04-03T15:13:37;8.93;;;4.05;;
21089;SDS011;10703;51.020;6.128;2023-04-03T15:16:05;4.63;;;2.90;;
21089;SDS011;10703;51.020;6.128;2023-04-03T15:18:38;4.65;;;3.38;;
21089;SDS011;10703;51.020;6.128;2023-04-03T15:21:05;4.50;;;3.00;;
21089;SDS011;10703;51.020;6.128;2023-04-03T15:23:31;6.13;;;3.45;;
21089;SDS011;10703;51.020;6.128;2023-04-03T15:25:58;5.10;;;3.45;;
21089;SDS011;10703;51.020;6.128;2023-04-03T15:28:30;6.80;;;3.83;;
21089;SDS011;10703;51.020;6.128;2023-04-03T15:31:02;3.15;;;2.90;;
21089;SDS011;10703;51.020;6.128;2023-04-03T15:33:30;4.53;;;3.42;;
21089;SDS011;10703;51.020;6.128;2023-04-03T15:35:58;3.85;;;3.40;;
21089;SDS011;10703;51.020;6.128;2023-04-03T15:38:33;5.43;;;3.20;;
21089;SDS011;10703;51.020;6.128;2023-04-03T15:41:00;3.38;;;3.10;;
21089;SDS011;10703;51.020;6.128;2023-04-03T15:43:27;4.75;;;2.97;;
21089;SDS011;10703;51.020;6.128;2023-04-03T15:45:56;3.55;;;2.80;;
21089;SDS011;10703;51.020;6.128;2023-04-03T15:48:24;3.83;;;3.20;;
21089;SDS011;10703;51.020;6.128;2023-04-03T15:50:51;4.15;;;3.40;;
21089;SDS011;10703;51.020;6.128;2023-04-03T15:53:18;5.57;;;3.30;;
21089;SDS011;10703;51.020;6.128;2023-04-03T15:55:44;8.02;;;2.92;;
21089;SDS011;10703;51.020;6.128;2023-04-03T15:58:11;3.28;;;2.97;;
21089;SDS011;10703;51.020;6.128;2023-04-03T16:00:38;5.55;;;3.20;;
21089;SDS011;10703;51.020;6.128;2023-04-03T16:03:07;3.78;;;3.35;;
21089;SDS011;10703;51.020;6.128;2023-04-03T16:05:36;4.32;;;3.30;;
21089;SDS011;10703;51.020;6.128;2023-04-03T16:08:05;4.43;;;3.50;;
21089;SDS011;10703;51.020;6.128;2023-04-03T16:10:34;3.65;;;3.30;;
21089;SDS011;10703;51.020;6.128;2023-04-03T16:13:02;5.25;;;3.40;;
21089;SDS011;10703;51.020;6.128;2023-04-03T16:15:29;5.55;;;3.60;;
21089;SDS011;10703;51.020;6.128;2023-04-03T16:17:58;5.65;;;3.70;;
21089;SDS011;10703;51.020;6.128;2023-04-03T16:20:26;3.63;;;3.33;;
21089;SDS011;10703;51.020;6.128;2023-04-03T16:22:53;3.70;;;3.35;;